createdAt,value
2019-02-12T00:00:37.035Z,32.03
2019-02-12T00:02:14.196Z,33.00
2019-02-12T00:03:49.677Z,32.03
2019-02-12T00:05:25.267Z,32.70
2019-02-12T00:07:00.784Z,39.47
2019-02-12T00:08:36.283Z,34.67
2019-02-12T00:10:11.756Z,34.90
2019-02-12T00:11:47.272Z,34.57
2019-02-12T00:13:22.806Z,30.43
2019-02-12T00:14:58.298Z,36.00
2019-02-12T00:16:33.795Z,35.83
2019-02-12T00:18:09.289Z,32.83
2019-02-12T00:19:44.978Z,29.17
2019-02-12T00:21:20.490Z,31.37
2019-02-12T00:22:56.068Z,31.53
2019-02-12T00:24:31.553Z,27.83
2019-02-12T00:26:07.039Z,28.27
2019-02-12T00:27:43.619Z,27.00
2019-02-12T00:29:19.285Z,25.93
2019-02-12T00:30:54.774Z,24.63
2019-02-12T00:32:30.262Z,28.00
2019-02-12T00:34:05.902Z,22.03
2019-02-12T00:35:41.361Z,24.30
2019-02-12T00:37:16.856Z,25.13
2019-02-12T00:38:52.338Z,25.27
2019-02-12T00:40:27.843Z,25.37
2019-02-12T00:42:03.327Z,25.80
2019-02-12T00:43:38.871Z,23.47
2019-02-12T00:45:14.397Z,23.27
2019-02-12T00:46:49.950Z,23.90
2019-02-12T00:48:25.438Z,23.77
2019-02-12T00:50:00.930Z,23.90
2019-02-12T00:51:36.431Z,24.87
2019-02-12T00:53:11.914Z,26.43
2019-02-12T00:54:47.395Z,23.07
2019-02-12T00:56:22.890Z,23.60
2019-02-12T00:57:58.458Z,21.93
2019-02-12T00:59:33.960Z,22.23
2019-02-12T01:01:09.443Z,21.90
2019-02-12T01:02:44.951Z,23.93
2019-02-12T01:04:20.430Z,20.87
2019-02-12T01:05:55.923Z,22.20
2019-02-12T01:07:31.417Z,21.33
2019-02-12T01:09:09.856Z,21.20
2019-02-12T01:10:45.328Z,22.47
2019-02-12T01:12:20.811Z,22.63
2019-02-12T01:13:56.394Z,21.33
2019-02-12T01:15:31.965Z,20.93
2019-02-12T01:17:07.466Z,19.93
2019-02-12T01:18:43.120Z,22.90
2019-02-12T01:20:20.171Z,25.70
2019-02-12T01:21:55.635Z,24.93
2019-02-12T01:23:31.124Z,25.10
2019-02-12T01:25:08.512Z,23.90
2019-02-12T01:26:44.628Z,21.13
2019-02-12T01:28:20.113Z,25.67
2019-02-12T01:29:55.597Z,29.10
2019-02-12T01:31:31.224Z,25.63
2019-02-12T01:33:06.777Z,24.57
2019-02-12T01:34:42.486Z,25.90
2019-02-12T01:36:18.008Z,22.07
2019-02-12T01:37:53.494Z,23.97
2019-02-12T01:39:28.976Z,24.90
2019-02-12T01:41:04.467Z,27.07
2019-02-12T01:42:40.114Z,25.60
2019-02-12T01:44:15.669Z,22.00
2019-02-12T01:45:51.173Z,22.17
2019-02-12T01:47:26.648Z,21.83
2019-02-12T01:49:02.166Z,20.07
2019-02-12T01:50:37.655Z,22.80
2019-02-12T01:52:13.141Z,20.67
2019-02-12T01:53:48.642Z,19.17
2019-02-12T01:55:24.208Z,18.63
2019-02-12T01:56:59.687Z,20.70
2019-02-12T01:58:35.173Z,18.03
2019-02-12T02:00:13.710Z,19.20
2019-02-12T02:01:49.292Z,17.83
2019-02-12T02:03:24.848Z,18.37
2019-02-12T02:05:00.412Z,17.57
2019-02-12T02:06:35.929Z,18.13
2019-02-12T02:08:11.430Z,18.93
2019-02-12T02:09:46.996Z,18.13
2019-02-12T02:11:22.485Z,17.07
2019-02-12T02:12:57.978Z,18.17
2019-02-12T02:14:33.509Z,17.30
2019-02-12T02:16:08.966Z,16.10
2019-02-12T02:17:45.958Z,19.07
2019-02-12T02:19:21.443Z,19.40
2019-02-12T02:20:56.933Z,16.77
2019-02-12T02:22:32.413Z,19.03
2019-02-12T02:24:07.905Z,17.90
2019-02-12T02:25:43.397Z,19.17
2019-02-12T02:27:18.953Z,19.70
2019-02-12T02:28:54.471Z,25.67
2019-02-12T02:30:30.027Z,21.70
2019-02-12T02:32:05.509Z,23.73
2019-02-12T02:33:40.994Z,20.90
2019-02-12T02:35:16.504Z,21.83
2019-02-12T02:36:51.985Z,22.67
2019-02-12T02:38:27.468Z,20.40
2019-02-12T02:40:02.945Z,21.17
2019-02-12T02:41:38.443Z,21.07
2019-02-12T02:43:13.922Z,19.10
2019-02-12T02:44:49.412Z,18.47
2019-02-12T02:46:26.404Z,21.20
2019-02-12T02:48:01.979Z,20.53
2019-02-12T02:49:37.454Z,20.27
2019-02-12T02:51:13.003Z,15.87
2019-02-12T02:52:48.499Z,17.10
2019-02-12T02:54:23.985Z,16.57
2019-02-12T02:55:59.466Z,16.60
2019-02-12T02:57:34.966Z,16.00
2019-02-12T02:59:10.483Z,14.57
2019-02-12T03:00:45.962Z,13.43
2019-02-12T03:02:21.446Z,17.20
2019-02-12T03:03:56.933Z,12.63
2019-02-12T03:05:32.440Z,15.80
2019-02-12T03:07:07.925Z,14.30
2019-02-12T03:08:43.485Z,11.43
2019-02-12T03:10:18.951Z,14.60
2019-02-12T03:11:54.444Z,12.30
2019-02-12T03:13:29.921Z,12.77
2019-02-12T03:15:07.902Z,12.93
2019-02-12T03:16:43.419Z,12.67
2019-02-12T03:18:18.901Z,12.07
2019-02-12T03:19:54.372Z,14.70
2019-02-12T03:21:29.919Z,13.37
2019-02-12T03:23:05.401Z,12.90
2019-02-12T03:24:40.893Z,12.03
2019-02-12T03:26:16.377Z,9.43
2019-02-12T03:27:51.866Z,12.97
2019-02-12T03:29:27.348Z,9.60
2019-02-12T03:31:02.823Z,12.27
2019-02-12T03:32:38.307Z,10.43
2019-02-12T03:34:13.795Z,10.20
2019-02-12T03:35:49.270Z,12.63
2019-02-12T03:37:24.758Z,8.77
2019-02-12T03:39:00.261Z,10.83
2019-02-12T03:40:35.736Z,11.17
2019-02-12T03:42:11.219Z,7.57
2019-02-12T03:43:46.706Z,8.80
2019-02-12T03:45:23.700Z,8.30
2019-02-12T03:46:59.242Z,7.83
2019-02-12T03:48:34.728Z,12.47
2019-02-12T03:50:12.211Z,8.27
2019-02-12T03:51:47.725Z,11.13
2019-02-12T03:53:23.197Z,7.63
2019-02-12T03:54:58.684Z,6.57
2019-02-12T03:56:34.166Z,8.57
2019-02-12T03:58:09.680Z,8.73
2019-02-12T03:59:45.170Z,6.53
2019-02-12T04:01:20.720Z,8.00
2019-02-12T04:03:01.312Z,8.43
2019-02-12T04:04:36.851Z,9.10
2019-02-12T04:06:12.339Z,8.90
2019-02-12T04:07:47.813Z,7.27
2019-02-12T04:09:23.294Z,8.33
2019-02-12T04:10:58.773Z,8.33
2019-02-12T04:12:34.244Z,8.10
2019-02-12T04:14:09.804Z,7.00
2019-02-12T04:15:45.381Z,6.47
2019-02-12T04:17:20.907Z,6.67
2019-02-12T04:18:56.395Z,7.63
2019-02-12T04:20:31.903Z,6.80
2019-02-12T04:22:07.401Z,8.10
2019-02-12T04:23:42.885Z,7.87
2019-02-12T04:25:18.375Z,7.40
2019-02-12T04:26:53.868Z,9.30
2019-02-12T04:28:29.365Z,5.87
2019-02-12T04:30:06.148Z,5.33
2019-02-12T04:31:41.647Z,6.57
2019-02-12T04:33:17.134Z,6.93
2019-02-12T04:34:52.624Z,6.43
2019-02-12T04:36:28.103Z,4.83
2019-02-12T04:38:03.582Z,7.23
2019-02-12T04:39:39.093Z,7.40
2019-02-12T04:41:14.571Z,5.40
2019-02-12T04:42:50.058Z,8.93
2019-02-12T04:44:25.532Z,7.67
2019-02-12T04:46:01.021Z,8.73
2019-02-12T04:47:36.524Z,9.27
2019-02-12T04:49:12.003Z,5.93
2019-02-12T04:50:47.482Z,8.67
2019-02-12T04:52:31.620Z,5.93
2019-02-12T04:54:00.171Z,8.37
2019-02-12T04:55:35.659Z,6.03
2019-02-12T04:57:11.204Z,8.47
2019-02-12T04:58:46.716Z,10.17
2019-02-12T05:00:22.236Z,6.33
2019-02-12T05:01:57.722Z,6.07
2019-02-12T05:03:33.201Z,7.53
2019-02-12T05:05:10.888Z,7.50
2019-02-12T05:06:46.443Z,11.90
2019-02-12T05:08:21.922Z,8.30
2019-02-12T05:09:57.400Z,7.27
2019-02-12T05:11:32.882Z,9.77
2019-02-12T05:13:08.442Z,10.33
2019-02-12T05:14:43.996Z,12.97
2019-02-12T05:16:19.476Z,9.27
2019-02-12T05:17:54.963Z,16.33
2019-02-12T05:19:30.477Z,10.23
2019-02-12T05:21:05.968Z,12.80
2019-02-12T05:22:43.657Z,11.77
2019-02-12T05:24:18.628Z,10.07
2019-02-12T05:25:54.133Z,9.30
2019-02-12T05:27:29.621Z,11.53
2019-02-12T05:29:05.107Z,8.83
2019-02-12T05:30:40.584Z,10.87
2019-02-12T05:32:16.076Z,11.73
2019-02-12T05:33:51.554Z,12.07
2019-02-12T05:35:27.041Z,12.57
2019-02-12T05:37:02.530Z,16.13
2019-02-12T05:38:38.041Z,13.13
2019-02-12T05:40:13.537Z,19.57
2019-02-12T05:41:49.024Z,17.67
2019-02-12T05:43:24.504Z,22.17
2019-02-12T05:45:00.024Z,19.43
2019-02-12T05:46:35.501Z,22.17
2019-02-12T05:48:11.063Z,23.93
2019-02-12T05:49:46.551Z,17.00
2019-02-12T05:51:22.028Z,15.30
2019-02-12T05:52:57.512Z,14.80
2019-02-12T05:54:32.999Z,18.70
2019-02-12T05:56:08.499Z,12.20
2019-02-12T05:57:45.503Z,20.73
2019-02-12T05:59:20.985Z,24.90
2019-02-12T06:00:56.477Z,22.80
2019-02-12T06:02:31.962Z,31.93
2019-02-12T06:04:07.455Z,19.17
2019-02-12T06:05:42.935Z,28.17
2019-02-12T06:07:18.425Z,15.90
2019-02-12T06:08:53.914Z,26.67
2019-02-12T06:10:29.409Z,22.90
2019-02-12T06:12:04.965Z,16.93
2019-02-12T06:13:40.454Z,17.37
2019-02-12T06:15:15.932Z,26.87
2019-02-12T06:16:51.415Z,34.00
2019-02-12T06:18:26.912Z,25.90
2019-02-12T06:20:02.431Z,32.97
2019-02-12T06:21:37.919Z,16.63
2019-02-12T06:23:13.427Z,37.60
2019-02-12T06:24:48.901Z,27.87
2019-02-12T06:26:24.431Z,29.47
2019-02-12T06:27:59.902Z,20.03
2019-02-12T06:29:35.395Z,32.40
2019-02-12T06:31:11.015Z,20.40
2019-02-12T06:32:46.595Z,22.47
2019-02-12T06:34:22.082Z,16.00
2019-02-12T06:35:57.576Z,23.87
2019-02-12T06:37:33.048Z,19.30
2019-02-12T06:39:08.609Z,19.60
2019-02-12T06:40:44.116Z,13.43
2019-02-12T06:42:19.588Z,15.83
2019-02-12T06:43:55.079Z,13.47
2019-02-12T06:45:30.565Z,15.37
2019-02-12T06:47:06.055Z,16.17
2019-02-12T06:48:41.545Z,13.43
2019-02-12T06:50:17.080Z,17.30
2019-02-12T06:51:52.699Z,14.37
2019-02-12T06:53:28.186Z,13.20
2019-02-12T06:55:03.677Z,15.43
2019-02-12T06:56:39.155Z,16.53
2019-02-12T06:58:14.674Z,14.97
2019-02-12T06:59:50.150Z,16.83
2019-02-12T07:01:25.643Z,13.27
2019-02-12T07:03:17.183Z,16.03
2019-02-12T07:04:53.437Z,16.17
2019-02-12T07:06:45.701Z,18.07
2019-02-12T07:09:04.990Z,13.87
2019-02-12T07:10:40.475Z,17.67
2019-02-12T07:12:40.339Z,17.83
2019-02-12T07:14:35.718Z,16.83
2019-02-12T07:16:21.710Z,16.07
2019-02-12T07:18:22.385Z,14.87
2019-02-12T07:20:35.686Z,22.40
2019-02-12T07:22:31.186Z,23.03
2019-02-12T07:24:49.264Z,19.67
2019-02-12T07:26:38.705Z,13.87
2019-02-12T07:28:55.525Z,14.47
2019-02-12T07:31:13.696Z,27.90
2019-02-12T07:33:13.308Z,16.13
2019-02-12T07:35:15.745Z,14.60
2019-02-12T07:37:02.191Z,25.37
2019-02-12T07:39:03.373Z,15.83
2019-02-12T07:41:06.406Z,14.83
2019-02-12T07:42:55.332Z,14.50
2019-02-12T07:44:35.711Z,13.03
2019-02-12T07:46:47.003Z,14.50
2019-02-12T07:48:42.446Z,14.73
2019-02-12T07:50:37.930Z,12.03
2019-02-12T07:52:20.883Z,14.23
2019-02-12T07:54:22.384Z,13.03
2019-02-12T07:56:17.403Z,17.83
2019-02-12T07:58:41.658Z,19.77
2019-02-12T08:00:45.840Z,13.80
2019-02-12T08:02:41.051Z,12.67
2019-02-12T08:04:41.422Z,13.30
2019-02-12T08:06:30.634Z,12.00
2019-02-12T08:08:31.923Z,10.53
2019-02-12T08:10:33.543Z,13.03
2019-02-12T08:12:45.459Z,14.13
2019-02-12T08:14:28.406Z,13.33
2019-02-12T08:16:29.056Z,13.60
2019-02-12T08:18:09.429Z,16.17
2019-02-12T08:20:25.925Z,12.40
2019-02-12T08:22:25.715Z,15.27
2019-02-12T08:24:33.392Z,10.17
2019-02-12T08:26:28.938Z,13.87
2019-02-12T08:28:21.072Z,14.07
2019-02-12T08:30:27.205Z,13.13
2019-02-12T08:32:29.806Z,14.80
2019-02-12T08:34:47.706Z,12.33
2019-02-12T08:36:43.017Z,15.23
2019-02-12T08:38:41.381Z,12.77
2019-02-12T08:40:27.357Z,12.23
2019-02-12T08:42:22.969Z,14.30
2019-02-12T08:44:39.642Z,12.37
2019-02-12T08:46:25.898Z,12.93
2019-02-12T08:48:36.833Z,14.77
2019-02-12T08:50:18.385Z,13.20
2019-02-12T08:52:22.526Z,13.90
2019-02-12T08:54:36.249Z,12.17
2019-02-12T08:56:41.641Z,12.57
2019-02-12T08:58:34.079Z,11.77
2019-02-12T09:00:55.153Z,16.60
2019-02-12T09:02:47.378Z,15.27
2019-02-12T09:04:48.763Z,15.17
2019-02-12T09:07:06.703Z,16.63
2019-02-12T09:09:27.942Z,15.53
2019-02-12T09:11:40.208Z,16.37
2019-02-12T09:13:26.088Z,15.50
2019-02-12T09:15:47.476Z,16.97
2019-02-12T09:17:56.322Z,16.03
2019-02-12T09:19:56.204Z,18.70
2019-02-12T09:21:54.604Z,16.10
2019-02-12T09:23:46.692Z,13.27
2019-02-12T09:25:35.752Z,18.97
2019-02-12T09:27:42.671Z,17.87
2019-02-12T09:29:23.065Z,18.97
2019-02-12T09:31:29.177Z,21.60
2019-02-12T09:33:42.284Z,15.13
2019-02-12T09:35:39.124Z,20.87
2019-02-12T09:38:02.292Z,15.83
2019-02-12T09:40:19.192Z,18.60
2019-02-12T09:42:18.945Z,16.40
2019-02-12T09:44:17.584Z,15.77
2019-02-12T09:46:29.393Z,17.37
2019-02-12T09:48:20.213Z,15.57
2019-02-12T09:50:15.900Z,18.67
2019-02-12T09:52:24.458Z,19.87
2019-02-12T09:54:26.008Z,25.00
2019-02-12T09:56:22.764Z,15.03
2019-02-12T09:58:28.244Z,16.30
2019-02-12T10:00:27.987Z,18.00
2019-02-12T10:02:25.695Z,15.03
2019-02-12T10:04:31.886Z,19.37
2019-02-12T10:06:27.334Z,17.10
2019-02-12T10:08:28.418Z,14.90
2019-02-12T10:10:24.089Z,15.30
2019-02-12T10:12:38.577Z,20.03
2019-02-12T10:14:42.871Z,16.33
2019-02-12T10:16:26.144Z,20.50
2019-02-12T10:18:09.372Z,18.17
2019-02-12T10:20:09.106Z,18.63
2019-02-12T10:22:18.544Z,19.77
2019-02-12T10:24:26.889Z,14.10
2019-02-12T10:26:10.390Z,19.03
2019-02-12T10:28:24.197Z,24.40
2019-02-12T10:30:36.611Z,15.07
2019-02-12T10:32:10.737Z,22.73
2019-02-12T10:33:46.900Z,18.37
2019-02-12T10:35:22.386Z,17.33
2019-02-12T10:36:57.899Z,17.93
2019-02-12T10:38:33.435Z,21.83
2019-02-12T10:40:08.918Z,17.77
2019-02-12T10:41:44.401Z,23.33
2019-02-12T10:43:19.926Z,21.17
2019-02-12T10:44:55.554Z,18.20
2019-02-12T10:46:31.035Z,21.97
2019-02-12T10:48:06.511Z,22.90
2019-02-12T10:49:42.033Z,19.07
2019-02-12T10:51:17.533Z,14.93
2019-02-12T10:52:53.011Z,28.90
2019-02-12T10:54:28.590Z,24.33
2019-02-12T10:56:04.707Z,23.60
2019-02-12T10:57:40.271Z,21.23
2019-02-12T10:59:15.829Z,19.43
2019-02-12T11:00:52.827Z,20.83
2019-02-12T11:02:28.327Z,20.47
2019-02-12T11:04:03.805Z,24.43
2019-02-12T11:05:39.354Z,24.70
2019-02-12T11:07:14.836Z,28.80
2019-02-12T11:08:50.364Z,32.67
2019-02-12T11:10:25.839Z,24.17
2019-02-12T11:12:02.833Z,21.87
2019-02-12T11:13:38.307Z,24.17
2019-02-12T11:15:13.794Z,21.10
2019-02-12T11:16:49.326Z,17.80
2019-02-12T11:18:24.845Z,20.40
2019-02-12T11:20:00.335Z,14.20
2019-02-12T11:21:35.900Z,17.03
2019-02-12T11:23:11.785Z,21.70
2019-02-12T11:24:47.257Z,16.20
2019-02-12T11:26:22.742Z,20.70
2019-02-12T11:27:58.221Z,16.93
2019-02-12T11:29:33.816Z,17.20
2019-02-12T11:31:10.829Z,22.53
2019-02-12T11:32:46.315Z,19.93
2019-02-12T11:34:21.811Z,16.47
2019-02-12T11:35:58.201Z,16.70
2019-02-12T11:37:33.668Z,20.43
2019-02-12T11:39:09.227Z,21.13
2019-02-12T11:40:46.227Z,17.83
2019-02-12T11:42:21.738Z,19.93
2019-02-12T11:43:59.009Z,14.13
2019-02-12T11:45:34.488Z,16.63
2019-02-12T11:47:09.995Z,17.03
2019-02-12T11:48:45.559Z,17.97
2019-02-12T11:50:21.034Z,16.60
2019-02-12T11:51:56.512Z,16.30
2019-02-12T11:53:32.339Z,12.90
2019-02-12T11:55:14.870Z,15.33
2019-02-12T11:56:50.359Z,20.77
2019-02-12T11:58:25.839Z,17.27
2019-02-12T12:00:01.483Z,16.10
2019-02-12T12:01:38.492Z,13.47
2019-02-12T12:03:13.972Z,14.73
2019-02-12T12:04:49.463Z,14.03
2019-02-12T12:06:24.952Z,15.43
2019-02-12T12:08:00.489Z,17.07
2019-02-12T12:09:35.965Z,11.23
2019-02-12T12:11:11.584Z,15.40
2019-02-12T12:12:47.073Z,17.00
2019-02-12T12:14:24.089Z,14.00
2019-02-12T12:15:59.564Z,16.10
2019-02-12T12:17:35.058Z,19.90
2019-02-12T12:19:10.582Z,16.00
2019-02-12T12:20:46.061Z,15.70
2019-02-12T12:22:21.686Z,16.50
2019-02-12T12:23:57.164Z,14.57
2019-02-12T12:25:32.650Z,15.97
2019-02-12T12:27:09.636Z,15.73
2019-02-12T12:28:47.459Z,15.93
2019-02-12T12:30:22.938Z,14.13
2019-02-12T12:31:58.424Z,15.27
2019-02-12T12:33:33.904Z,18.43
2019-02-12T12:35:11.310Z,13.27
2019-02-12T12:36:46.793Z,12.30
2019-02-12T12:38:22.285Z,15.13
2019-02-12T12:39:57.765Z,14.97
2019-02-12T12:41:35.031Z,12.33
2019-02-12T12:43:11.724Z,13.37
2019-02-12T12:44:47.190Z,15.90
2019-02-12T12:46:22.674Z,15.57
2019-02-12T12:47:58.154Z,19.37
2019-02-12T12:49:33.658Z,16.07
2019-02-12T12:51:09.198Z,19.43
2019-02-12T12:52:45.267Z,17.33
2019-02-12T12:54:20.745Z,13.10
2019-02-12T12:55:56.238Z,16.37
2019-02-12T12:57:31.719Z,15.47
2019-02-12T12:59:07.219Z,17.90
2019-02-12T13:00:42.700Z,16.33
2019-02-12T13:02:18.183Z,13.90
2019-02-12T13:03:53.669Z,17.43
2019-02-12T13:05:29.186Z,18.60
2019-02-12T13:07:06.169Z,14.90
2019-02-12T13:08:41.661Z,19.33
2019-02-12T13:10:18.348Z,18.27
2019-02-12T13:11:53.844Z,17.80
2019-02-12T13:13:29.316Z,15.73
2019-02-12T13:15:06.944Z,15.97
2019-02-12T13:16:42.455Z,17.83
2019-02-12T13:18:18.404Z,13.87
2019-02-12T13:19:53.893Z,19.73
2019-02-12T13:21:29.375Z,21.70
2019-02-12T13:23:04.888Z,18.47
2019-02-12T13:24:41.751Z,19.97
2019-02-12T13:26:18.811Z,22.13
2019-02-12T13:27:54.289Z,19.17
2019-02-12T13:29:29.940Z,24.30
2019-02-12T13:31:05.432Z,22.10
2019-02-12T13:32:41.596Z,19.70
2019-02-12T13:34:18.057Z,22.93
2019-02-12T13:35:53.563Z,23.03
2019-02-12T13:37:29.057Z,18.23
2019-02-12T13:39:05.587Z,17.77
2019-02-12T13:40:41.147Z,21.70
2019-02-12T13:42:16.637Z,20.03
2019-02-12T13:43:53.127Z,25.93
2019-02-12T13:45:28.650Z,18.97
2019-02-12T13:47:04.153Z,23.13
2019-02-12T13:48:39.706Z,19.03
2019-02-12T13:50:15.200Z,16.37
2019-02-12T13:51:51.566Z,20.47
2019-02-12T13:53:27.073Z,20.00
2019-02-12T13:55:02.697Z,14.97
2019-02-12T13:56:38.548Z,20.23
2019-02-12T13:58:14.036Z,16.80
2019-02-12T13:59:49.548Z,18.73
2019-02-12T14:01:25.026Z,18.37
2019-02-12T14:03:01.269Z,18.50
2019-02-12T14:04:37.508Z,21.97
2019-02-12T14:06:13.040Z,14.57
2019-02-12T14:07:48.541Z,19.83
2019-02-12T14:09:24.065Z,15.37
2019-02-12T14:10:59.622Z,19.90
2019-02-12T14:12:35.103Z,15.50
2019-02-12T14:14:10.611Z,13.90
2019-02-12T14:15:46.102Z,16.63
2019-02-12T14:17:21.588Z,18.33
2019-02-12T14:18:57.148Z,16.50
2019-02-12T14:20:32.654Z,19.33
2019-02-12T14:22:08.154Z,18.03
2019-02-12T14:23:43.633Z,19.37
2019-02-12T14:25:26.352Z,18.97
2019-02-12T14:27:01.857Z,22.40
2019-02-12T14:28:37.334Z,19.93
2019-02-12T14:30:22.296Z,23.90
2019-02-12T14:31:57.811Z,21.53
2019-02-12T14:33:33.285Z,21.30
2019-02-12T14:35:11.678Z,15.73
2019-02-12T14:36:47.200Z,18.27
2019-02-12T14:38:22.706Z,20.37
2019-02-12T14:39:58.168Z,20.63
2019-02-12T14:41:34.014Z,20.63
2019-02-12T14:43:14.168Z,19.60
2019-02-12T14:44:46.682Z,20.33
2019-02-12T14:46:22.172Z,24.70
2019-02-12T14:47:57.666Z,21.97
2019-02-12T14:49:33.158Z,21.67
2019-02-12T14:51:08.633Z,23.50
2019-02-12T14:52:45.520Z,19.40
2019-02-12T14:54:21.025Z,19.90
2019-02-12T14:55:56.507Z,22.90
2019-02-12T14:57:33.886Z,22.70
2019-02-12T14:59:09.365Z,19.33
2019-02-12T15:00:44.858Z,21.87
2019-02-12T15:02:20.332Z,25.80
2019-02-12T15:03:55.827Z,24.93
2019-02-12T15:05:31.487Z,17.80
2019-02-12T15:07:07.063Z,27.47
2019-02-12T15:08:44.194Z,20.73
2019-02-12T15:10:19.680Z,22.10
2019-02-12T15:11:55.156Z,23.00
2019-02-12T15:13:32.308Z,25.20
2019-02-12T15:15:22.244Z,24.10
2019-02-12T15:16:57.766Z,23.00
2019-02-12T15:18:33.301Z,23.77
2019-02-12T15:20:13.889Z,22.80
2019-02-12T15:21:49.397Z,22.00
2019-02-12T15:23:24.877Z,21.77
2019-02-12T15:25:00.381Z,21.23
2019-02-12T15:26:35.900Z,21.63
2019-02-12T15:28:11.387Z,22.27
2019-02-12T15:29:50.397Z,19.47
2019-02-12T15:31:25.889Z,19.97
2019-02-12T15:33:01.389Z,21.07
2019-02-12T15:34:36.950Z,21.83
2019-02-12T15:36:12.439Z,22.60
2019-02-12T15:37:47.940Z,19.73
2019-02-12T15:39:23.460Z,19.27
2019-02-12T15:40:59.017Z,19.90
2019-02-12T15:42:34.579Z,21.10
2019-02-12T15:44:10.073Z,18.37
2019-02-12T15:45:45.656Z,21.70
2019-02-12T15:47:21.175Z,23.20
2019-02-12T15:48:56.816Z,22.37
2019-02-12T15:50:32.312Z,23.60
2019-02-12T15:52:07.801Z,19.73
2019-02-12T15:53:43.298Z,22.57
2019-02-12T15:55:20.387Z,21.20
2019-02-12T15:56:55.942Z,22.73
2019-02-12T15:58:31.590Z,21.90
2019-02-12T16:00:12.473Z,26.33
2019-02-12T16:01:51.232Z,23.90
2019-02-12T16:03:26.894Z,23.50
2019-02-12T16:05:02.391Z,44.43
2019-02-12T16:06:37.896Z,63.97
2019-02-12T16:08:13.469Z,69.87
2019-02-12T16:09:49.136Z,38.80
2019-02-12T16:11:25.005Z,32.90
2019-02-12T16:13:00.486Z,30.77
2019-02-12T16:14:35.978Z,25.00
2019-02-12T16:16:11.550Z,32.00
2019-02-12T16:17:47.051Z,46.50
2019-02-12T16:19:22.561Z,41.47
2019-02-12T16:20:58.049Z,40.33
2019-02-12T16:22:33.556Z,44.27
2019-02-12T16:24:09.045Z,41.13
2019-02-12T16:25:44.549Z,40.70
2019-02-12T16:27:20.129Z,47.63
2019-02-12T16:28:55.743Z,41.37
2019-02-12T16:30:31.302Z,38.80
2019-02-12T16:32:06.828Z,41.50
2019-02-12T16:33:42.489Z,38.73
2019-02-12T16:35:18.819Z,39.93
2019-02-12T16:36:55.124Z,36.20
2019-02-12T16:38:30.953Z,38.33
2019-02-12T16:40:10.802Z,39.43
2019-02-12T16:41:46.331Z,50.67
2019-02-12T16:43:21.803Z,52.50
2019-02-12T16:44:57.390Z,54.07
2019-02-12T16:46:34.461Z,202.43
2019-02-12T16:48:11.084Z,61.03
2019-02-12T16:49:46.572Z,38.37
2019-02-12T16:51:22.400Z,47.87
2019-02-12T16:52:58.055Z,45.93
2019-02-12T16:54:33.701Z,62.77
2019-02-12T16:56:09.307Z,74.03
2019-02-12T16:57:44.789Z,62.87
2019-02-12T16:59:20.852Z,53.47
2019-02-12T17:00:56.339Z,52.23
2019-02-12T17:02:31.834Z,47.57
2019-02-12T17:04:07.347Z,68.10
2019-02-12T17:05:42.838Z,70.63
2019-02-12T17:07:18.419Z,96.87
2019-02-12T17:08:53.998Z,58.07
2019-02-12T17:10:29.561Z,51.27
2019-02-12T17:12:05.080Z,60.80
2019-02-12T17:13:40.564Z,53.63
2019-02-12T17:15:16.078Z,74.33
2019-02-12T17:16:51.567Z,78.37
2019-02-12T17:18:27.059Z,82.23
2019-02-12T17:20:02.567Z,71.43
2019-02-12T17:21:38.087Z,137.77
2019-02-12T17:23:13.593Z,85.97
2019-02-12T17:24:49.100Z,121.70
2019-02-12T17:26:24.623Z,142.07
2019-02-12T17:28:00.120Z,146.20
2019-02-12T17:29:35.751Z,84.10
2019-02-12T17:31:11.321Z,93.87
2019-02-12T17:32:46.818Z,63.30
2019-02-12T17:34:22.319Z,87.37
2019-02-12T17:35:57.821Z,61.40
2019-02-12T17:37:33.316Z,53.40
2019-02-12T17:39:08.806Z,79.47
2019-02-12T17:40:44.326Z,67.90
2019-02-12T17:42:19.822Z,65.30
2019-02-12T17:43:55.319Z,159.70
2019-02-12T17:45:30.897Z,108.60
2019-02-12T17:47:06.400Z,65.93
2019-02-12T17:48:41.889Z,157.67
2019-02-12T17:50:17.534Z,107.10
2019-02-12T17:51:53.125Z,78.03
2019-02-12T17:53:28.607Z,335.57
2019-02-12T17:55:04.958Z,101.63
2019-02-12T17:56:40.531Z,215.70
2019-02-12T17:58:16.031Z,193.70
2019-02-12T17:59:51.546Z,209.17
2019-02-12T18:01:28.631Z,440.00
2019-02-12T18:03:04.307Z,117.47
2019-02-12T18:04:39.825Z,56.17
2019-02-12T18:06:15.317Z,45.07
2019-02-12T18:07:50.815Z,156.60
2019-02-12T18:09:26.316Z,47.50
2019-02-12T18:11:01.884Z,65.50
2019-02-12T18:12:37.446Z,121.40
2019-02-12T18:14:12.979Z,44.57
2019-02-12T18:15:48.549Z,92.43
2019-02-12T18:17:24.050Z,84.93
2019-02-12T18:18:59.566Z,106.17
2019-02-12T18:20:35.130Z,46.47
2019-02-12T18:22:10.636Z,83.63
2019-02-12T18:23:46.212Z,95.17
2019-02-12T18:25:21.725Z,39.63
2019-02-12T18:26:57.450Z,87.70
2019-02-12T18:28:32.945Z,42.27
2019-02-12T18:30:19.429Z,32.73
2019-02-12T18:31:54.980Z,29.53
2019-02-12T18:33:30.479Z,38.33
2019-02-12T18:35:07.799Z,30.13
2019-02-12T18:36:43.285Z,27.00
2019-02-12T18:38:18.810Z,28.07
2019-02-12T18:39:54.301Z,84.37
2019-02-12T18:41:29.802Z,276.47
2019-02-12T18:43:05.302Z,132.63
2019-02-12T18:44:40.883Z,65.30
2019-02-12T18:46:17.238Z,103.63
2019-02-12T18:47:52.739Z,56.93
2019-02-12T18:49:28.990Z,38.67
2019-02-12T18:51:05.726Z,55.07
2019-02-12T18:52:42.008Z,64.17
2019-02-12T18:54:17.532Z,48.97
2019-02-12T18:55:53.030Z,33.33
2019-02-12T18:57:28.511Z,20.57
2019-02-12T18:59:04.079Z,29.00
2019-02-12T19:00:39.611Z,35.77
2019-02-12T19:02:15.176Z,31.33
2019-02-12T19:03:50.684Z,39.33
2019-02-12T19:05:26.867Z,31.83
2019-02-12T19:07:02.534Z,32.07
2019-02-12T19:08:38.050Z,56.77
2019-02-12T19:10:17.515Z,38.43
2019-02-12T19:11:54.572Z,29.03
2019-02-12T19:13:30.257Z,71.10
2019-02-12T19:15:11.560Z,49.93
2019-02-12T19:16:47.146Z,43.23
2019-02-12T19:18:25.522Z,37.00
2019-02-12T19:20:01.716Z,34.73
2019-02-12T19:21:37.227Z,25.33
2019-02-12T19:23:12.716Z,39.73
2019-02-12T19:24:48.216Z,32.90
2019-02-12T19:26:23.709Z,20.93
2019-02-12T19:27:59.286Z,61.60
2019-02-12T19:29:34.774Z,37.20
2019-02-12T19:31:10.277Z,50.77
2019-02-12T19:32:45.797Z,34.87
2019-02-12T19:34:21.295Z,23.17
2019-02-12T19:35:56.803Z,30.27
2019-02-12T19:37:32.320Z,33.27
2019-02-12T19:39:07.831Z,29.47
2019-02-12T19:40:43.328Z,36.33
2019-02-12T19:42:18.900Z,54.87
2019-02-12T19:43:54.478Z,63.27
2019-02-12T19:45:30.055Z,44.17
2019-02-12T19:47:05.533Z,85.87
2019-02-12T19:48:41.480Z,109.97
2019-02-12T19:50:19.967Z,30.40
2019-02-12T19:51:57.034Z,76.53
2019-02-12T19:53:32.533Z,60.37
2019-02-12T19:55:10.015Z,60.27
2019-02-12T19:56:45.513Z,40.37
2019-02-12T19:58:21.368Z,55.87
2019-02-12T19:59:56.868Z,71.67
2019-02-12T20:01:32.364Z,72.67
2019-02-12T20:03:07.865Z,68.90
2019-02-12T20:04:43.359Z,88.47
2019-02-12T20:06:18.909Z,67.60
2019-02-12T20:07:54.399Z,40.33
2019-02-12T20:09:31.023Z,41.60
2019-02-12T20:11:06.730Z,55.13
2019-02-12T20:12:42.226Z,70.57
2019-02-12T20:14:17.736Z,73.33
2019-02-12T20:15:53.227Z,33.87
2019-02-12T20:17:28.813Z,49.13
2019-02-12T20:19:04.313Z,44.07
2019-02-12T20:20:42.699Z,64.60
2019-02-12T20:22:19.838Z,91.00
2019-02-12T20:23:56.336Z,64.77
2019-02-12T20:25:33.464Z,50.10
2019-02-12T20:27:09.530Z,64.97
2019-02-12T20:28:45.057Z,83.13
2019-02-12T20:30:20.633Z,47.23
2019-02-12T20:31:56.136Z,70.00
2019-02-12T20:33:31.636Z,83.63
2019-02-12T20:35:11.825Z,53.67
2019-02-12T20:36:47.315Z,80.90
2019-02-12T20:38:22.899Z,55.10
2019-02-12T20:39:58.836Z,74.67
2019-02-12T20:41:34.334Z,58.93
2019-02-12T20:43:09.846Z,49.00
2019-02-12T20:44:48.104Z,199.73
2019-02-12T20:46:22.608Z,200.27
2019-02-12T20:47:58.506Z,142.47
2019-02-12T20:49:34.006Z,66.07
2019-02-12T20:51:09.591Z,91.73
2019-02-12T20:52:45.126Z,109.63
2019-02-12T20:54:20.635Z,57.93
2019-02-12T20:55:56.146Z,64.00
2019-02-12T20:57:31.724Z,73.30
2019-02-12T20:59:07.218Z,82.30
2019-02-12T21:00:42.832Z,109.20
2019-02-12T21:02:18.339Z,55.93
2019-02-12T21:03:53.851Z,57.07
2019-02-12T21:05:29.633Z,55.30
2019-02-12T21:07:05.148Z,49.20
2019-02-12T21:08:40.661Z,49.80
2019-02-12T21:10:21.902Z,58.00
2019-02-12T21:11:57.659Z,69.00
2019-02-12T21:13:33.187Z,68.67
2019-02-12T21:15:16.342Z,48.73
2019-02-12T21:16:51.936Z,29.20
2019-02-12T21:18:27.458Z,36.17